sensor_id;sensor_type;location;lat;lon;timestamp;pressure;altitude;pressure_sealevel;temperature;humidity
8049;BME280;20935;42.660;23.342;2023-09-19T00:02:38;95127.66;;;25.35;61.36
8049;BME280;20935;42.660;23.342;2023-09-19T00:05:24;95128.88;;;25.34;61.60
8049;BME280;20935;42.660;23.342;2023-09-19T00:08:12;95131.63;;;25.34;61.29
8049;BME280;20935;42.660;23.342;2023-09-19T00:10:58;95130.41;;;25.35;61.15
8049;BME280;20935;42.660;23.342;2023-09-19T00:13:47;95130.41;;;25.35;60.83
8049;BME280;20935;42.660;23.342;2023-09-19T00:16:34;95133.16;;;25.35;61.32
8049;BME280;20935;42.660;23.342;2023-09-19T00:19:21;95129.66;;;25.34;61.37
8049;BME280;20935;42.660;23.342;2023-09-19T00:22:08;95129.66;;;25.34;61.14
8049;BME280;20935;42.660;23.342;2023-09-19T00:24:54;95115.94;;;25.34;61.23
8049;BME280;20935;42.660;23.342;2023-09-19T00:27:39;95113.19;;;25.34;61.22
8049;BME280;20935;42.660;23.342;2023-09-19T00:30:25;95117.44;;;25.35;61.57
8049;BME280;20935;42.660;23.342;2023-09-19T00:33:11;95117.91;;;25.34;61.87
8049;BME280;20935;42.660;23.342;2023-09-19T00:36:01;95110.44;;;25.34;61.62
8049;BME280;20935;42.660;23.342;2023-09-19T00:38:49;95110.91;;;25.33;61.13
8049;BME280;20935;42.660;23.342;2023-09-19T00:41:35;95108.94;;;25.33;61.27
8049;BME280;20935;42.660;23.342;2023-09-19T00:44:21;95102.69;;;25.33;62.04
8049;BME280;20935;42.660;23.342;2023-09-19T00:47:07;95101.19;;;25.32;61.65
8049;BME280;20935;42.660;23.342;2023-09-19T00:49:53;95099.94;;;25.33;61.92
8049;BME280;20935;42.660;23.342;2023-09-19T00:52:42;95099.19;;;25.32;61.27
8049;BME280;20935;42.660;23.342;2023-09-19T00:55:29;95105.94;;;25.31;61.55
8049;BME280;20935;42.660;23.342;2023-09-19T00:58:17;95109.44;;;25.32;60.99
8049;BME280;20935;42.660;23.342;2023-09-19T01:01:04;95103.94;;;25.32;60.95
8049;BME280;20935;42.660;23.342;2023-09-19T01:03:50;95100.44;;;25.31;60.67
8049;BME280;20935;42.660;23.342;2023-09-19T01:06:36;95103.19;;;25.31;60.54
8049;BME280;20935;42.660;23.342;2023-09-19T01:09:25;95110.66;;;25.31;60.47
8049;BME280;20935;42.660;23.342;2023-09-19T01:12:11;95111.88;;;25.30;59.92
8049;BME280;20935;42.660;23.342;2023-09-19T01:15:06;95107.16;;;25.30;60.52
8049;BME280;20935;42.660;23.342;2023-09-19T01:18:00;95097.41;;;25.29;60.17
8049;BME280;20935;42.660;23.342;2023-09-19T01:20:53;95105.63;;;25.29;60.98
8049;BME280;20935;42.660;23.342;2023-09-19T01:24:10;95108.38;;;25.29;61.39
8049;BME280;20935;42.660;23.342;2023-09-19T01:27:21;95110.38;;;25.29;60.81
8049;BME280;20935;42.660;23.342;2023-09-19T01:30:14;95115.09;;;25.28;61.51
8049;BME280;20935;42.660;23.342;2023-09-19T01:33:01;95108.13;;;25.27;61.41
8049;BME280;20935;42.660;23.342;2023-09-19T01:35:48;95107.34;;;25.27;60.95
8049;BME280;20935;42.660;23.342;2023-09-19T01:38:34;95108.13;;;25.27;60.67
8049;BME280;20935;42.660;23.342;2023-09-19T01:41:26;95104.63;;;25.27;60.65
8049;BME280;20935;42.660;23.342;2023-09-19T01:44:21;95096.38;;;25.27;60.56
8049;BME280;20935;42.660;23.342;2023-09-19T01:47:23;95098.38;;;25.26;60.38
8049;BME280;20935;42.660;23.342;2023-09-19T01:50:16;95092.88;;;25.26;60.40
8049;BME280;20935;42.660;23.342;2023-09-19T01:53:06;95101.13;;;25.26;60.26
8049;BME280;20935;42.660;23.342;2023-09-19T01:55:54;95096.38;;;25.27;60.79
8049;BME280;20935;42.660;23.342;2023-09-19T01:58:42;95100.34;;;25.25;60.79
8049;BME280;20935;42.660;23.342;2023-09-19T02:01:30;95110.09;;;25.27;61.43
8049;BME280;20935;42.660;23.342;2023-09-19T02:04:17;95122.28;;;25.25;62.04
8049;BME280;20935;42.660;23.342;2023-09-19T02:07:03;95118.81;;;25.25;61.83
8049;BME280;20935;42.660;23.342;2023-09-19T02:09:52;95114.06;;;25.25;61.64
8049;BME280;20935;42.660;23.342;2023-09-19T02:12:37;95113.81;;;25.23;61.00
8049;BME280;20935;42.660;23.342;2023-09-19T02:15:23;95105.09;;;25.25;61.28
8049;BME280;20935;42.660;23.342;2023-09-19T02:18:08;95112.56;;;25.24;61.51
8049;BME280;20935;42.660;23.342;2023-09-19T02:20:55;95108.31;;;25.23;60.92
8049;BME280;20935;42.660;23.342;2023-09-19T02:23:42;95114.53;;;25.24;61.57
8049;BME280;20935;42.660;23.342;2023-09-19T02:26:27;95122.78;;;25.24;61.35
8049;BME280;20935;42.660;23.342;2023-09-19T02:29:13;95109.56;;;25.22;61.38
8049;BME280;20935;42.660;23.342;2023-09-19T02:31:59;95107.56;;;25.23;60.86
8049;BME280;20935;42.660;23.342;2023-09-19T02:34:46;95100.09;;;25.23;61.13
8049;BME280;20935;42.660;23.342;2023-09-19T02:37:34;95097.81;;;25.22;61.19
8049;BME280;20935;42.660;23.342;2023-09-19T02:40:20;95095.09;;;25.22;60.73
8049;BME280;20935;42.660;23.342;2023-09-19T02:43:05;95083.34;;;25.21;60.82
8049;BME280;20935;42.660;23.342;2023-09-19T02:45:53;95082.59;;;25.21;61.45
8049;BME280;20935;42.660;23.342;2023-09-19T02:48:39;95082.59;;;25.21;61.45
8049;BME280;20935;42.660;23.342;2023-09-19T02:51:26;95081.84;;;25.20;60.84
8049;BME280;20935;42.660;23.342;2023-09-19T02:54:13;95079.84;;;25.21;60.72
8049;BME280;20935;42.660;23.342;2023-09-19T02:56:58;95077.63;;;25.19;60.53
8049;BME280;20935;42.660;23.342;2023-09-19T02:59:44;95072.59;;;25.18;60.36
8049;BME280;20935;42.660;23.342;2023-09-19T03:02:29;95073.34;;;25.18;60.28
8049;BME280;20935;42.660;23.342;2023-09-19T03:05:17;95072.59;;;25.18;60.01
8049;BME280;20935;42.660;23.342;2023-09-19T03:08:03;95057.38;;;25.17;60.13
8049;BME280;20935;42.660;23.342;2023-09-19T03:10:50;95061.91;;;25.20;60.57
8049;BME280;20935;42.660;23.342;2023-09-19T03:13:37;95064.38;;;25.18;59.82
8049;BME280;20935;42.660;23.342;2023-09-19T03:16:24;95064.38;;;25.18;60.93
8049;BME280;20935;42.660;23.342;2023-09-19T03:19:10;95065.59;;;25.17;60.12
8049;BME280;20935;42.660;23.342;2023-09-19T03:21:56;95065.13;;;25.18;59.92
8049;BME280;20935;42.660;23.342;2023-09-19T03:24:41;95063.16;;;25.19;60.59
8049;BME280;20935;42.660;23.342;2023-09-19T03:27:29;95057.38;;;25.17;60.13
8049;BME280;20935;42.660;23.342;2023-09-19T03:30:14;95061.63;;;25.18;60.10
8049;BME280;20935;42.660;23.342;2023-09-19T03:33:01;95060.13;;;25.17;60.31
8049;BME280;20935;42.660;23.342;2023-09-19T03:35:52;95062.84;;;25.17;59.40
8049;BME280;20935;42.660;23.342;2023-09-19T03:38:37;95064.84;;;25.16;59.96
8049;BME280;20935;42.660;23.342;2023-09-19T03:41:23;95054.63;;;25.17;60.54
8049;BME280;20935;42.660;23.342;2023-09-19T03:44:09;95066.84;;;25.16;60.00
8049;BME280;20935;42.660;23.342;2023-09-19T03:46:55;95071.09;;;25.17;60.56
8049;BME280;20935;42.660;23.342;2023-09-19T03:49:41;95072.34;;;25.16;60.29
8049;BME280;20935;42.660;23.342;2023-09-19T03:52:26;95080.56;;;25.16;60.22
8049;BME280;20935;42.660;23.342;2023-09-19T03:55:12;95079.81;;;25.15;60.48
8049;BME280;20935;42.660;23.342;2023-09-19T03:57:57;95083.31;;;25.16;60.28
8049;BME280;20935;42.660;23.342;2023-09-19T04:00:44;95083.78;;;25.14;60.01
8049;BME280;20935;42.660;23.342;2023-09-19T04:03:29;95078.28;;;25.14;60.29
8049;BME280;20935;42.660;23.342;2023-09-19T04:06:19;95079.06;;;25.15;60.30
8049;BME280;20935;42.660;23.342;2023-09-19T04:09:05;95089.25;;;25.14;59.96
8049;BME280;20935;42.660;23.342;2023-09-19T04:11:51;95090.00;;;25.15;60.00
8049;BME280;20935;42.660;23.342;2023-09-19T04:14:36;95100.97;;;25.15;59.78
8049;BME280;20935;42.660;23.342;2023-09-19T04:17:23;95100.22;;;25.14;60.39
8049;BME280;20935;42.660;23.342;2023-09-19T04:20:09;95103.72;;;25.15;59.96
8049;BME280;20935;42.660;23.342;2023-09-19T04:22:56;95113.19;;;25.14;60.36
8049;BME280;20935;42.660;23.342;2023-09-19T04:25:42;95106.19;;;25.13;59.34
8049;BME280;20935;42.660;23.342;2023-09-19T04:28:28;95100.69;;;25.13;59.88
8049;BME280;20935;42.660;23.342;2023-09-19T04:31:14;95095.22;;;25.13;59.86
8049;BME280;20935;42.660;23.342;2023-09-19T04:34:02;95091.72;;;25.12;59.63
8049;BME280;20935;42.660;23.342;2023-09-19T04:36:48;95085.50;;;25.12;59.23
8049;BME280;20935;42.660;23.342;2023-09-19T04:39:34;95095.22;;;25.13;59.69
8049;BME280;20935;42.660;23.342;2023-09-19T04:42:19;95084.25;;;25.13;58.98
8049;BME280;20935;42.660;23.342;2023-09-19T04:45:06;95082.25;;;25.13;59.39
8049;BME280;20935;42.660;23.342;2023-09-19T04:47:54;95087.75;;;25.13;59.31
8049;BME280;20935;42.660;23.342;2023-09-19T04:50:41;95081.50;;;25.13;59.06
8049;BME280;20935;42.660;23.342;2023-09-19T04:53:27;95083.03;;;25.14;59.14
8049;BME280;20935;42.660;23.342;2023-09-19T04:56:13;95083.78;;;25.14;59.21
8049;BME280;20935;42.660;23.342;2023-09-19T04:58:59;95077.81;;;25.16;58.83
8049;BME280;20935;42.660;23.342;2023-09-19T05:01:44;95072.59;;;25.18;59.11
8049;BME280;20935;42.660;23.342;2023-09-19T05:04:30;95070.63;;;25.18;58.50
8049;BME280;20935;42.660;23.342;2023-09-19T05:07:17;95072.13;;;25.19;59.07
8049;BME280;20935;42.660;23.342;2023-09-19T05:10:04;95070.88;;;25.20;59.04
8049;BME280;20935;42.660;23.342;2023-09-19T05:12:53;95070.88;;;25.20;58.94
8049;BME280;20935;42.660;23.342;2023-09-19T05:15:38;95069.66;;;25.21;59.22
8049;BME280;20935;42.660;23.342;2023-09-19T05:18:24;95073.91;;;25.22;59.18
8049;BME280;20935;42.660;23.342;2023-09-19T05:21:09;95069.94;;;25.23;59.94
8049;BME280;20935;42.660;23.342;2023-09-19T05:23:57;95066.69;;;25.25;59.50
8049;BME280;20935;42.660;23.342;2023-09-19T05:26:42;95068.69;;;25.24;58.71
8049;BME280;20935;42.660;23.342;2023-09-19T05:29:29;95066.69;;;25.25;59.21
8049;BME280;20935;42.660;23.342;2023-09-19T05:32:15;95068.22;;;25.26;59.09
8049;BME280;20935;42.660;23.342;2023-09-19T05:35:02;95060.75;;;25.27;59.32
8049;BME280;20935;42.660;23.342;2023-09-19T05:37:52;95056.00;;;25.27;59.19
8049;BME280;20935;42.660;23.342;2023-09-19T05:40:40;95060.25;;;25.28;59.35
8049;BME280;20935;42.660;23.342;2023-09-19T05:43:26;95056.28;;;25.29;58.62
8049;BME280;20935;42.660;23.342;2023-09-19T05:46:12;95059.78;;;25.30;58.80
8049;BME280;20935;42.660;23.342;2023-09-19T05:48:59;95050.03;;;25.29;58.66
8049;BME280;20935;42.660;23.342;2023-09-19T05:51:45;95051.53;;;25.30;59.33
8049;BME280;20935;42.660;23.342;2023-09-19T05:54:31;95059.00;;;25.29;58.67
8049;BME280;20935;42.660;23.342;2023-09-19T05:57:18;95059.00;;;25.29;58.25
8049;BME280;20935;42.660;23.342;2023-09-19T06:00:05;95052.00;;;25.28;58.40
8049;BME280;20935;42.660;23.342;2023-09-19T06:02:53;95052.78;;;25.29;59.75
8049;BME280;20935;42.660;23.342;2023-09-19T06:05:38;95056.28;;;25.29;58.44
8049;BME280;20935;42.660;23.342;2023-09-19T06:08:25;95048.81;;;25.30;58.37
8049;BME280;20935;42.660;23.342;2023-09-19T06:11:12;95048.03;;;25.29;58.29
8049;BME280;20935;42.660;23.342;2023-09-19T06:13:58;95046.81;;;25.30;58.26
8049;BME280;20935;42.660;23.342;2023-09-19T06:16:46;95044.31;;;25.32;58.19
8049;BME280;20935;42.660;23.342;2023-09-19T06:19:31;95054.06;;;25.33;58.09
8049;BME280;20935;42.660;23.342;2023-09-19T06:22:17;95044.63;;;25.34;58.39
8049;BME280;20935;42.660;23.342;2023-09-19T06:25:03;95040.66;;;25.35;58.38
8049;BME280;20935;42.660;23.342;2023-09-19T06:27:50;95037.16;;;25.35;58.54
8049;BME280;20935;42.660;23.342;2023-09-19T06:30:39;95039.38;;;25.36;58.03
8049;BME280;20935;42.660;23.342;2023-09-19T06:33:26;95033.91;;;25.36;57.83
8049;BME280;20935;42.660;23.342;2023-09-19T06:36:11;95042.41;;;25.38;57.90
8049;BME280;20935;42.660;23.342;2023-09-19T06:38:56;95034.94;;;25.39;57.89
8049;BME280;20935;42.660;23.342;2023-09-19T06:41:42;95038.44;;;25.39;58.21
8049;BME280;20935;42.660;23.342;2023-09-19T06:44:29;95034.44;;;25.40;58.26
8049;BME280;20935;42.660;23.342;2023-09-19T06:47:17;95038.69;;;25.41;58.55
8049;BME280;20935;42.660;23.342;2023-09-19T06:50:03;95048.16;;;25.40;58.00
8049;BME280;20935;42.660;23.342;2023-09-19T06:52:50;95048.66;;;25.39;57.60
8049;BME280;20935;42.660;23.342;2023-09-19T06:55:37;95044.69;;;25.40;57.98
8049;BME280;20935;42.660;23.342;2023-09-19T06:58:23;95045.16;;;25.38;57.51
8049;BME280;20935;42.660;23.342;2023-09-19T07:01:08;95051.41;;;25.39;58.07
8049;BME280;20935;42.660;23.342;2023-09-19T07:03:54;95047.16;;;25.38;57.63
8049;BME280;20935;42.660;23.342;2023-09-19T07:06:40;95049.41;;;25.39;57.90
8049;BME280;20935;42.660;23.342;2023-09-19T07:09:25;95056.88;;;25.39;57.39
8049;BME280;20935;42.660;23.342;2023-09-19T07:12:12;95048.66;;;25.39;58.12
8049;BME280;20935;42.660;23.342;2023-09-19T07:14:58;95054.41;;;25.41;58.07
8049;BME280;20935;42.660;23.342;2023-09-19T07:17:43;95057.91;;;25.41;57.78
8049;BME280;20935;42.660;23.342;2023-09-19T07:20:31;95059.13;;;25.40;58.72
8049;BME280;20935;42.660;23.342;2023-09-19T07:23:18;95056.38;;;25.40;57.78
8049;BME280;20935;42.660;23.342;2023-09-19T07:26:05;95056.38;;;25.40;58.41
8049;BME280;20935;42.660;23.342;2023-09-19T07:28:51;95054.91;;;25.39;58.10
8049;BME280;20935;42.660;23.342;2023-09-19T07:31:37;95050.19;;;25.40;57.99
8049;BME280;20935;42.660;23.342;2023-09-19T07:34:22;95053.66;;;25.40;57.98
8049;BME280;20935;42.660;23.342;2023-09-19T07:37:09;95054.16;;;25.39;58.36
8049;BME280;20935;42.660;23.342;2023-09-19T07:39:55;95058.41;;;25.40;58.41
8049;BME280;20935;42.660;23.342;2023-09-19T07:42:40;95054.16;;;25.39;57.77
8049;BME280;20935;42.660;23.342;2023-09-19T07:45:28;95054.91;;;25.39;58.00
8049;BME280;20935;42.660;23.342;2023-09-19T07:48:14;95049.41;;;25.39;58.37
8049;BME280;20935;42.660;23.342;2023-09-19T07:51:02;95056.38;;;25.40;58.11
8049;BME280;20935;42.660;23.342;2023-09-19T07:53:50;95054.91;;;25.39;58.25
8049;BME280;20935;42.660;23.342;2023-09-19T07:56:36;95062.63;;;25.41;58.27
8049;BME280;20935;42.660;23.342;2023-09-19T07:59:22;95063.38;;;25.41;58.14
8049;BME280;20935;42.660;23.342;2023-09-19T08:02:07;95059.41;;;25.42;58.85
8049;BME280;20935;42.660;23.342;2023-09-19T08:04:59;95059.41;;;25.42;58.40
8049;BME280;20935;42.660;23.342;2023-09-19T08:07:45;95058.19;;;25.43;59.02
8049;BME280;20935;42.660;23.342;2023-09-19T08:10:34;95051.44;;;25.44;59.22
8049;BME280;20935;42.660;23.342;2023-09-19T08:13:20;95047.47;;;25.45;58.90
8049;BME280;20935;42.660;23.342;2023-09-19T08:16:05;95039.75;;;25.44;59.27
8049;BME280;20935;42.660;23.342;2023-09-19T08:18:51;95034.97;;;25.44;58.27
8049;BME280;20935;42.660;23.342;2023-09-19T08:21:39;95036.50;;;25.45;59.16
8049;BME280;20935;42.660;23.342;2023-09-19T08:24:25;95031.00;;;25.45;59.18
8049;BME280;20935;42.660;23.342;2023-09-19T08:27:13;95027.03;;;25.46;59.04
8049;BME280;20935;42.660;23.342;2023-09-19T08:30:02;95029.31;;;25.48;59.28
8049;BME280;20935;42.660;23.342;2023-09-19T08:32:47;95023.06;;;25.47;58.88
8049;BME280;20935;42.660;23.342;2023-09-19T08:35:33;95032.31;;;25.50;58.58
8049;BME280;20935;42.660;23.342;2023-09-19T08:38:19;95035.06;;;25.50;58.52
8049;BME280;20935;42.660;23.342;2023-09-19T08:41:05;95037.31;;;25.51;58.75
8049;BME280;20935;42.660;23.342;2023-09-19T08:43:53;95042.81;;;25.51;58.20
8049;BME280;20935;42.660;23.342;2023-09-19T08:46:41;95038.84;;;25.52;57.97
8049;BME280;20935;42.660;23.342;2023-09-19T08:49:35;95032.88;;;25.54;57.95
8049;BME280;20935;42.660;23.342;2023-09-19T08:52:25;95030.13;;;25.54;57.77
8049;BME280;20935;42.660;23.342;2023-09-19T08:55:13;95027.41;;;25.54;58.38
8049;BME280;20935;42.660;23.342;2023-09-19T08:58:10;95017.19;;;25.54;58.88
8049;BME280;20935;42.660;23.342;2023-09-19T09:00:59;95015.66;;;25.53;58.49
8049;BME280;20935;42.660;23.342;2023-09-19T09:03:46;95021.16;;;25.53;58.67
8049;BME280;20935;42.660;23.342;2023-09-19T09:06:34;95020.41;;;25.53;58.77
8049;BME280;20935;42.660;23.342;2023-09-19T09:09:21;95019.63;;;25.52;58.45
8049;BME280;20935;42.660;23.342;2023-09-19T09:12:07;95018.41;;;25.53;58.69
8049;BME280;20935;42.660;23.342;2023-09-19T09:14:53;95014.91;;;25.53;59.51
8049;BME280;20935;42.660;23.342;2023-09-19T09:17:42;95019.16;;;25.54;59.45
8049;BME280;20935;42.660;23.342;2023-09-19T09:20:28;95006.19;;;25.54;58.54
8049;BME280;20935;42.660;23.342;2023-09-19T09:23:14;94998.72;;;25.55;58.73
8049;BME280;20935;42.660;23.342;2023-09-19T09:26:00;95000.97;;;25.56;57.51
8049;BME280;20935;42.660;23.342;2023-09-19T09:28:47;94997.00;;;25.57;57.64
8049;BME280;20935;42.660;23.342;2023-09-19T09:31:34;94998.50;;;25.58;57.92
8049;BME280;20935;42.660;23.342;2023-09-19T09:34:20;94995.00;;;25.58;57.04
8049;BME280;20935;42.660;23.342;2023-09-19T09:37:06;94989.03;;;25.59;57.78
8049;BME280;20935;42.660;23.342;2023-09-19T09:39:53;94988.53;;;25.61;57.35
8049;BME280;20935;42.660;23.342;2023-09-19T09:42:40;94978.31;;;25.61;57.14
8049;BME280;20935;42.660;23.342;2023-09-19T09:45:26;94979.09;;;25.62;57.32
8049;BME280;20935;42.660;23.342;2023-09-19T09:48:24;94982.56;;;25.62;57.41
8049;BME280;20935;42.660;23.342;2023-09-19T09:51:29;94974.59;;;25.64;56.75
8049;BME280;20935;42.660;23.342;2023-09-19T09:54:16;94970.16;;;25.67;57.01
8049;BME280;20935;42.660;23.342;2023-09-19T09:57:07;94964.16;;;25.68;57.16
8049;BME280;20935;42.660;23.342;2023-09-19T10:00:02;94962.69;;;25.67;56.67
8049;BME280;20935;42.660;23.342;2023-09-19T10:03:19;94966.91;;;25.68;57.16
8049;BME280;20935;42.660;23.342;2023-09-19T10:06:10;94963.41;;;25.68;57.03
8049;BME280;20935;42.660;23.342;2023-09-19T10:09:13;94968.88;;;25.68;57.04
8049;BME280;20935;42.660;23.342;2023-09-19T10:12:06;94962.69;;;25.67;56.89
8049;BME280;20935;42.660;23.342;2023-09-19T10:14:53;94968.88;;;25.68;57.02
8049;BME280;20935;42.660;23.342;2023-09-19T10:17:43;94961.16;;;25.66;56.89
8049;BME280;20935;42.660;23.342;2023-09-19T10:20:30;94957.66;;;25.66;57.50
8049;BME280;20935;42.660;23.342;2023-09-19T10:23:20;94957.66;;;25.66;57.02
8049;BME280;20935;42.660;23.342;2023-09-19T10:26:09;94955.69;;;25.66;57.52
8049;BME280;20935;42.660;23.342;2023-09-19T10:28:54;94952.94;;;25.66;57.54
8049;BME280;20935;42.660;23.342;2023-09-19T10:31:42;94951.41;;;25.65;57.24
8049;BME280;20935;42.660;23.342;2023-09-19T10:34:33;94951.41;;;25.65;57.32
8049;BME280;20935;42.660;23.342;2023-09-19T10:37:20;94940.44;;;25.65;57.04
8049;BME280;20935;42.660;23.342;2023-09-19T10:40:10;94945.94;;;25.65;57.55
8049;BME280;20935;42.660;23.342;2023-09-19T10:43:03;94940.44;;;25.65;58.45
8049;BME280;20935;42.660;23.342;2023-09-19T10:45:50;94945.16;;;25.65;58.36
8049;BME280;20935;42.660;23.342;2023-09-19T10:48:38;94945.16;;;25.65;58.60
8049;BME280;20935;42.660;23.342;2023-09-19T10:51:25;94938.44;;;25.66;58.22
8049;BME280;20935;42.660;23.342;2023-09-19T10:54:18;94929.47;;;25.65;57.77
8049;BME280;20935;42.660;23.342;2023-09-19T10:57:05;94926.72;;;25.65;57.58
8049;BME280;20935;42.660;23.342;2023-09-19T11:00:05;94929.47;;;25.65;57.33
8049;BME280;20935;42.660;23.342;2023-09-19T11:03:16;94930.22;;;25.66;57.44
8049;BME280;20935;42.660;23.342;2023-09-19T11:06:04;94930.22;;;25.66;57.30
8049;BME280;20935;42.660;23.342;2023-09-19T11:09:01;94923.50;;;25.67;57.21
8049;BME280;20935;42.660;23.342;2023-09-19T11:12:05;94927.00;;;25.67;56.93
8049;BME280;20935;42.660;23.342;2023-09-19T11:14:51;94919.50;;;25.68;57.45
8049;BME280;20935;42.660;23.342;2023-09-19T11:17:39;94923.00;;;25.68;57.57
8049;BME280;20935;42.660;23.342;2023-09-19T11:20:26;94917.50;;;25.68;57.36
8049;BME280;20935;42.660;23.342;2023-09-19T11:23:25;94920.25;;;25.68;56.87
8049;BME280;20935;42.660;23.342;2023-09-19T11:26:39;94913.06;;;25.71;57.74
8049;BME280;20935;42.660;23.342;2023-09-19T11:29:28;94908.31;;;25.72;57.27
8049;BME280;20935;42.660;23.342;2023-09-19T11:32:15;94909.06;;;25.72;58.12
8049;BME280;20935;42.660;23.342;2023-09-19T11:35:08;94902.84;;;25.72;57.47
8049;BME280;20935;42.660;23.342;2023-09-19T11:38:00;94896.84;;;25.73;57.61
8049;BME280;20935;42.660;23.342;2023-09-19T11:41:38;94893.88;;;25.77;57.39
8049;BME280;20935;42.660;23.342;2023-09-19T11:44:34;94884.41;;;25.78;58.01
8049;BME280;20935;42.660;23.342;2023-09-19T11:47:25;94881.19;;;25.79;57.55
8049;BME280;20935;42.660;23.342;2023-09-19T11:50:17;94864.97;;;25.81;57.99
8049;BME280;20935;42.660;23.342;2023-09-19T11:53:05;94855.97;;;25.81;58.18
8049;BME280;20935;42.660;23.342;2023-09-19T11:55:51;94863.44;;;25.80;58.39
8049;BME280;20935;42.660;23.342;2023-09-19T11:58:38;94862.22;;;25.81;58.12
8049;BME280;20935;42.660;23.342;2023-09-19T12:01:29;94870.72;;;25.83;57.73
8049;BME280;20935;42.660;23.342;2023-09-19T12:04:17;94864.72;;;25.85;57.88
8049;BME280;20935;42.660;23.342;2023-09-19T12:07:07;94856.00;;;25.86;58.48
8049;BME280;20935;42.660;23.342;2023-09-19T12:10:03;94854.03;;;25.87;58.29
8049;BME280;20935;42.660;23.342;2023-09-19T12:12:50;94840.28;;;25.87;58.29
8049;BME280;20935;42.660;23.342;2023-09-19T12:15:38;94842.53;;;25.88;58.20
8049;BME280;20935;42.660;23.342;2023-09-19T12:18:30;94837.03;;;25.88;57.97
8049;BME280;20935;42.660;23.342;2023-09-19T12:21:26;94835.06;;;25.89;57.86
8049;BME280;20935;42.660;23.342;2023-09-19T12:24:17;94839.31;;;25.90;58.36
8049;BME280;20935;42.660;23.342;2023-09-19T12:27:05;94838.06;;;25.91;58.00
8049;BME280;20935;42.660;23.342;2023-09-19T12:29:51;94828.56;;;25.92;58.55
8049;BME280;20935;42.660;23.342;2023-09-19T12:32:39;94822.59;;;25.93;58.15
8049;BME280;20935;42.660;23.342;2023-09-19T12:35:29;94816.63;;;25.95;58.34
8049;BME280;20935;42.660;23.342;2023-09-19T12:38:25;94819.38;;;25.95;58.76
8049;BME280;20935;42.660;23.342;2023-09-19T12:41:13;94814.63;;;25.95;58.30
8049;BME280;20935;42.660;23.342;2023-09-19T12:44:01;94817.38;;;25.95;58.33
8049;BME280;20935;42.660;23.342;2023-09-19T12:46:53;94806.41;;;25.95;58.47
8049;BME280;20935;42.660;23.342;2023-09-19T12:50:08;94809.16;;;25.95;58.62
8049;BME280;20935;42.660;23.342;2023-09-19T12:52:57;94805.91;;;25.97;58.66
8049;BME280;20935;42.660;23.342;2023-09-19T12:55:44;94810.63;;;25.96;58.86
8049;BME280;20935;42.660;23.342;2023-09-19T12:58:34;94812.91;;;25.98;58.29
8049;BME280;20935;42.660;23.342;2023-09-19T13:01:22;94806.16;;;25.99;58.64
8049;BME280;20935;42.660;23.342;2023-09-19T13:04:12;94798.69;;;25.99;58.25
8049;BME280;20935;42.660;23.342;2023-09-19T13:06:59;94790.69;;;26.01;58.64
8049;BME280;20935;42.660;23.342;2023-09-19T13:10:03;94794.19;;;26.02;58.79
8049;BME280;20935;42.660;23.342;2023-09-19T13:12:51;94780.47;;;26.02;58.34
8049;BME280;20935;42.660;23.342;2023-09-19T13:18:30;94782.75;;;26.09;66.86
8049;BME280;20935;42.660;23.342;2023-09-19T13:21:26;94788.75;;;26.13;71.54
8049;BME280;20935;42.660;23.342;2023-09-19T13:24:19;94781.25;;;26.13;76.79
8049;BME280;20935;42.660;23.342;2023-09-19T13:27:05;94777.00;;;26.12;76.75
8049;BME280;20935;42.660;23.342;2023-09-19T13:29:52;94767.28;;;26.11;76.93
8049;BME280;20935;42.660;23.342;2023-09-19T13:32:37;94763.50;;;26.09;77.98
8049;BME280;20935;42.660;23.342;2023-09-19T13:35:26;94757.03;;;26.06;75.63
8049;BME280;20935;42.660;23.342;2023-09-19T13:38:11;94761.75;;;26.06;74.21
8049;BME280;20935;42.660;23.342;2023-09-19T13:40:56;94756.75;;;26.04;73.54
8049;BME280;20935;42.660;23.342;2023-09-19T13:43:43;94756.75;;;26.04;72.21
8049;BME280;20935;42.660;23.342;2023-09-19T13:46:32;94761.25;;;26.02;72.15
8049;BME280;20935;42.660;23.342;2023-09-19T13:49:19;94766.25;;;26.03;69.44
8049;BME280;20935;42.660;23.342;2023-09-19T13:52:07;94756.50;;;26.02;69.77
8049;BME280;20935;42.660;23.342;2023-09-19T13:54:54;94760.00;;;26.03;69.20
8049;BME280;20935;42.660;23.342;2023-09-19T13:57:40;94757.28;;;26.03;68.85
8049;BME280;20935;42.660;23.342;2023-09-19T14:00:27;94750.00;;;26.00;67.59
8049;BME280;20935;42.660;23.342;2023-09-19T14:03:13;94758.22;;;26.00;67.88
8049;BME280;20935;42.660;23.342;2023-09-19T14:05:59;94750.00;;;26.00;67.95
8049;BME280;20935;42.660;23.342;2023-09-19T14:08:46;94751.50;;;26.01;67.09
8049;BME280;20935;42.660;23.342;2023-09-19T14:11:34;94755.75;;;26.02;66.50
8049;BME280;20935;42.660;23.342;2023-09-19T14:14:19;94757.75;;;26.01;65.36
8049;BME280;20935;42.660;23.342;2023-09-19T14:17:05;94751.03;;;26.02;64.89
8049;BME280;20935;42.660;23.342;2023-09-19T14:19:51;94764.00;;;26.02;64.60
8049;BME280;20935;42.660;23.342;2023-09-19T14:22:36;94768.72;;;26.01;65.01
8049;BME280;20935;42.660;23.342;2023-09-19T14:25:23;94751.50;;;26.01;65.30
8049;BME280;20935;42.660;23.342;2023-09-19T14:28:09;94753.00;;;26.02;65.48
8049;BME280;20935;42.660;23.342;2023-09-19T14:30:55;94743.53;;;26.03;65.08
8049;BME280;20935;42.660;23.342;2023-09-19T14:33:41;94742.78;;;26.02;64.83
8049;BME280;20935;42.660;23.342;2023-09-19T14:36:27;94735.03;;;26.01;65.09
8049;BME280;20935;42.660;23.342;2023-09-19T14:39:14;94735.03;;;26.01;64.69
8049;BME280;20935;42.660;23.342;2023-09-19T14:42:00;94744.50;;;26.00;65.10
8049;BME280;20935;42.660;23.342;2023-09-19T14:44:47;94734.78;;;25.99;64.82
8049;BME280;20935;42.660;23.342;2023-09-19T14:47:32;94736.78;;;25.98;64.69
8049;BME280;20935;42.660;23.342;2023-09-19T14:50:18;94740.00;;;25.97;64.22
8049;BME280;20935;42.660;23.342;2023-09-19T14:53:04;94733.75;;;25.96;64.30
8049;BME280;20935;42.660;23.342;2023-09-19T14:55:53;94733.75;;;25.96;64.04